West Elizabeth, Pennsylvania
Current Conditions -  °F | °C
As of 9:53 PM on Tuesday 25 Nov 2014 (Local Time) from KAGC Reporting Station
Clear Clear  
Wind Chill: 29°   Ceiling: Unl
Heat Index: 34°   Visibility: 10mi
Dew Point: 22°   Wind: 6mph
Humidity: 61%   Direction: 340°NNW
Pressure: 30.15"   Gusts: NA
Location:  40.27°N, 79.9°W
Report Text: KAGC 260253Z 34005KT 10SM CLR 01/M06 A3015 RMK AO2 SLP224 T00111056 50008
Loading
Personal Weather Stations






























Interactive Weather Map New forecast layout! Learn more

10-Day Weather Forecast

Advertisements
Track Severe Weather on mobile